Time;durP1;ratioP1;P1;durP2;ratioP2;P2;SDS_P1;SDS_P2;PMS_P1;PMS_P2;Temp;Humidity;BMP_temperature;BMP_pressure;BME280_temperature;BME280_humidity;BME280_pressure;Samples;Min_cycle;Max_cycle;Signal;HPM_P1;HPM_P2
2022/08/14 00:00:22;;;;;;;8.87;7.33;;;24.50;95.60;;;;;;5024100;28;20455;-80
2022/08/14 00:02:49;;;;;;;7.23;6.57;;;24.50;95.70;;;;;;5030171;28;20448;-82
2022/08/14 00:05:17;;;;;;;8.43;7.10;;;24.50;95.70;;;;;;5029831;28;20535;-79
2022/08/14 00:07:46;;;;;;;8.50;7.03;;;24.40;95.80;;;;;;5030134;28;20441;-82
2022/08/14 00:10:15;;;;;;;8.97;7.73;;;24.50;95.90;;;;;;5028318;28;20523;-82
2022/08/14 00:12:47;;;;;;;10.00;7.63;;;24.50;95.80;;;;;;5024163;28;20448;-81
2022/08/14 00:15:18;;;;;;;8.20;7.10;;;24.50;95.80;;;;;;5023659;28;20564;-81
2022/08/14 00:17:45;;;;;;;13.83;8.20;;;24.50;95.70;;;;;;5019383;28;20446;-80
2022/08/14 00:20:13;;;;;;;7.53;6.73;;;24.60;95.80;;;;;;5017975;28;20929;-81
2022/08/14 00:22:40;;;;;;;10.93;8.07;;;24.50;96.00;;;;;;5020619;28;20696;-82
2022/08/14 00:25:10;;;;;;;7.57;6.77;;;24.50;95.90;;;;;;5030152;28;20502;-82
2022/08/14 00:27:38;;;;;;;10.30;9.30;;;24.60;95.90;;;;;;5035599;28;20439;-80
2022/08/14 00:30:08;;;;;;;12.63;9.37;;;24.50;95.80;;;;;;5032256;28;20463;-80
2022/08/14 00:32:35;;;;;;;8.80;7.80;;;24.50;95.90;;;;;;5026823;28;20523;-80
2022/08/14 00:35:02;;;;;;;12.53;9.23;;;24.50;96.00;;;;;;5027917;28;20488;-82
2022/08/14 00:37:29;;;;;;;16.77;13.33;;;24.60;96.30;;;;;;5019577;28;20452;-80
2022/08/14 00:39:56;;;;;;;14.53;13.00;;;24.50;95.90;;;;;;5027481;28;20443;-79
2022/08/14 00:42:25;;;;;;;13.77;12.37;;;24.50;96.00;;;;;;5030302;28;20443;-78
2022/08/14 00:44:52;;;;;;;15.07;13.57;;;24.50;96.00;;;;;;5024036;28;20507;-78
2022/08/14 00:47:20;;;;;;;14.03;12.80;;;24.50;96.10;;;;;;5014270;28;20542;-80
2022/08/14 00:49:47;;;;;;;17.63;16.00;;;24.40;96.10;;;;;;5026529;28;20453;-79
2022/08/14 00:52:16;;;;;;;19.43;16.87;;;24.40;96.20;;;;;;5034942;28;20540;-80
2022/08/14 00:54:43;;;;;;;17.37;15.67;;;24.40;96.10;;;;;;5023200;28;20492;-80
2022/08/14 00:57:11;;;;;;;12.10;10.20;;;24.40;96.20;;;;;;5034377;28;20478;-79
2022/08/14 00:59:40;;;;;;;11.53;10.40;;;24.40;96.10;;;;;;5025081;28;20435;-80
2022/08/14 01:02:06;;;;;;;10.47;8.10;;;24.40;96.30;;;;;;5031436;28;20469;-79
2022/08/14 01:04:35;;;;;;;11.40;7.63;;;24.40;96.50;;;;;;5027823;28;20463;-80
2022/08/14 01:07:02;;;;;;;10.03;7.17;;;24.40;96.40;;;;;;5028074;28;20455;-79
2022/08/14 01:09:31;;;;;;;9.37;7.73;;;24.30;96.50;;;;;;5031990;28;20424;-78
2022/08/14 01:11:59;;;;;;;8.03;7.03;;;24.30;96.70;;;;;;5019375;28;20483;-78
2022/08/14 01:14:25;;;;;;;7.70;7.00;;;24.30;96.70;;;;;;5016376;28;20484;-78
2022/08/14 01:16:54;;;;;;;8.40;7.20;;;24.40;96.70;;;;;;5021477;28;20546;-77
2022/08/14 01:22:07;;;;;;;9.13;6.80;;;24.40;96.70;;;;;;5032054;28;20458;-79
2022/08/14 01:24:35;;;;;;;7.50;6.57;;;24.30;96.70;;;;;;5030480;28;20492;-78
2022/08/14 01:27:03;;;;;;;7.57;6.80;;;24.30;96.80;;;;;;5025522;28;20458;-78
2022/08/14 01:29:34;;;;;;;7.77;6.97;;;24.30;96.80;;;;;;5018189;28;20479;-77
2022/08/14 01:32:03;;;;;;;7.73;6.60;;;24.30;96.90;;;;;;5025151;28;20477;-80
2022/08/14 01:34:31;;;;;;;9.17;7.60;;;24.30;96.90;;;;;;5027483;28;20484;-80
2022/08/14 01:37:03;;;;;;;8.80;7.50;;;24.20;97.00;;;;;;5022987;28;20475;-79
2022/08/14 01:39:32;;;;;;;7.60;6.90;;;24.20;97.10;;;;;;5026533;28;20462;-79
2022/08/14 01:42:00;;;;;;;9.50;7.80;;;24.20;97.20;;;;;;5019473;28;20485;-78
2022/08/14 01:44:31;;;;;;;13.60;8.20;;;24.10;97.50;;;;;;5021759;28;20451;-81
2022/08/14 01:47:00;;;;;;;8.20;6.90;;;24.20;97.30;;;;;;5021333;28;20463;-79
2022/08/14 01:49:30;;;;;;;9.63;7.13;;;24.10;97.30;;;;;;5028845;28;20483;-76
2022/08/14 01:51:57;;;;;;;8.83;7.90;;;24.10;97.60;;;;;;5028834;28;20475;-79
2022/08/14 01:54:25;;;;;;;9.07;8.27;;;24.00;97.60;;;;;;5032132;28;20532;-78
2022/08/14 01:56:55;;;;;;;6.77;6.10;;;24.00;97.60;;;;;;5024760;28;20468;-80
2022/08/14 01:59:25;;;;;;;13.30;8.00;;;24.00;97.70;;;;;;5038549;28;20524;-77
2022/08/14 02:01:58;;;;;;;8.63;7.50;;;24.00;97.80;;;;;;5046774;28;20450;-79
2022/08/14 02:04:28;;;;;;;11.20;8.67;;;23.90;97.90;;;;;;5054981;28;20451;-78
2022/08/14 02:06:55;;;;;;;9.20;8.30;;;23.80;98.30;;;;;;5040047;28;20439;-80
2022/08/14 02:09:22;;;;;;;7.80;7.00;;;23.80;98.50;;;;;;5026380;28;20472;-80
2022/08/14 02:11:50;;;;;;;10.13;8.33;;;23.80;98.60;;;;;;5034124;28;21043;-80
2022/08/14 02:14:19;;;;;;;9.43;7.20;;;23.80;98.70;;;;;;5030363;28;20484;-79
2022/08/14 02:16:51;;;;;;;7.80;6.73;;;23.70;99.20;;;;;;5038075;28;21012;-81
2022/08/14 02:19:21;;;;;;;7.07;6.40;;;23.70;99.30;;;;;;5037221;28;20459;-79
2022/08/14 02:21:50;;;;;;;7.20;6.27;;;23.70;99.40;;;;;;5033850;28;20453;-80
2022/08/14 02:24:19;;;;;;;7.67;6.83;;;23.60;99.70;;;;;;5040254;28;20450;-78
2022/08/14 02:27:00;;;;;;;9.30;7.90;;;23.60;99.80;;;;;;5032483;28;20447;-81
2022/08/14 02:29:33;;;;;;;8.87;8.03;;;23.50;99.90;;;;;;5036461;28;20545;-80
2022/08/14 02:32:01;;;;;;;7.83;7.00;;;23.50;99.90;;;;;;5033208;28;20906;-80
2022/08/14 02:34:31;;;;;;;10.60;7.23;;;23.40;99.90;;;;;;5039508;28;20571;-79
2022/08/14 02:37:01;;;;;;;8.27;7.43;;;23.50;99.90;;;;;;5034935;28;20448;-80
2022/08/14 02:39:30;;;;;;;8.53;7.73;;;23.40;99.90;;;;;;5033489;28;20458;-80
2022/08/14 02:41:57;;;;;;;7.93;7.13;;;23.40;99.90;;;;;;5035962;28;20925;-80
2022/08/14 02:44:24;;;;;;;8.00;7.23;;;23.40;99.90;;;;;;5022626;28;20550;-79
2022/08/14 02:46:56;;;;;;;7.60;6.90;;;23.40;99.90;;;;;;5023024;28;20440;-79
2022/08/14 02:49:25;;;;;;;9.63;8.30;;;23.40;99.90;;;;;;5028695;28;20447;-79
2022/08/14 02:51:52;;;;;;;11.37;8.50;;;23.30;99.90;;;;;;5022422;28;20446;-79
2022/08/14 02:54:22;;;;;;;7.93;7.20;;;23.30;99.90;;;;;;5021307;28;20584;-80
2022/08/14 02:56:49;;;;;;;9.13;8.23;;;23.20;99.90;;;;;;5028493;28;20447;-78
2022/08/14 02:59:17;;;;;;;8.77;8.03;;;23.10;99.90;;;;;;5023563;28;20463;-80
2022/08/14 03:01:44;;;;;;;10.70;8.70;;;23.10;99.90;;;;;;5026078;28;20447;-79
2022/08/14 03:04:14;;;;;;;11.00;7.83;;;23.10;99.90;;;;;;5017136;28;20443;-80
2022/08/14 03:06:42;;;;;;;8.13;7.43;;;23.10;99.90;;;;;;5026558;28;20511;-81
2022/08/14 03:09:10;;;;;;;9.37;8.10;;;23.10;99.90;;;;;;5030208;28;20519;-80
2022/08/14 03:11:37;;;;;;;8.70;7.90;;;23.10;99.90;;;;;;5032910;28;20503;-79
2022/08/14 03:14:04;;;;;;;9.20;8.00;;;23.20;99.90;;;;;;5037800;28;20482;-79
2022/08/14 03:16:34;;;;;;;13.53;7.27;;;23.20;99.90;;;;;;5040055;28;20498;-77
2022/08/14 03:19:02;;;;;;;19.93;8.53;;;23.10;99.90;;;;;;5030081;28;20456;-80
2022/08/14 03:21:30;;;;;;;10.10;7.90;;;23.10;99.90;;;;;;5029138;28;20486;-80
2022/08/14 03:24:05;;;;;;;8.47;7.70;;;23.10;99.90;;;;;;5023002;28;20448;-80
2022/08/14 03:26:32;;;;;;;8.33;7.40;;;23.00;99.90;;;;;;5032860;28;20547;-79
2022/08/14 03:29:00;;;;;;;8.70;7.90;;;23.00;99.90;;;;;;5036462;28;20538;-79
2022/08/14 03:31:27;;;;;;;8.27;7.50;;;23.00;99.90;;;;;;5035273;28;20515;-80
2022/08/14 03:33:54;;;;;;;14.33;8.53;;;23.00;99.90;;;;;;5022407;28;20447;-79
2022/08/14 03:36:22;;;;;;;8.17;7.43;;;23.00;99.90;;;;;;5024343;28;20513;-78
2022/08/14 03:38:52;;;;;;;7.93;7.23;;;22.90;99.90;;;;;;5025721;28;20448;-79
2022/08/14 03:41:22;;;;;;;9.23;8.33;;;22.90;99.90;;;;;;5022312;28;20461;-78
2022/08/14 03:43:53;;;;;;;8.77;7.63;;;23.00;99.90;;;;;;5024995;28;20489;-79
2022/08/14 03:46:20;;;;;;;8.23;7.43;;;22.90;99.90;;;;;;5020063;28;20540;-80
2022/08/14 03:48:47;;;;;;;8.60;7.43;;;22.90;99.90;;;;;;5024715;28;20559;-79
2022/08/14 03:51:15;;;;;;;8.40;7.60;;;22.90;99.90;;;;;;5015527;28;20462;-81
2022/08/14 03:53:45;;;;;;;9.07;8.17;;;22.90;99.90;;;;;;5017417;28;20477;-80
2022/08/14 03:56:15;;;;;;;9.00;8.10;;;22.90;99.90;;;;;;5033294;28;20503;-77
2022/08/14 03:58:44;;;;;;;8.80;7.87;;;22.90;99.90;;;;;;5017010;28;20451;-78
2022/08/14 04:01:11;;;;;;;8.47;7.67;;;22.80;99.90;;;;;;5020975;28;21003;-78
2022/08/14 04:03:38;;;;;;;9.03;8.23;;;22.80;99.90;;;;;;5032867;28;20448;-78
2022/08/14 04:06:07;;;;;;;10.43;9.43;;;22.80;99.90;;;;;;5023456;28;20531;-80
2022/08/14 04:08:35;;;;;;;8.77;7.97;;;22.80;99.90;;;;;;5025745;28;20447;-80
2022/08/14 04:11:02;;;;;;;9.00;7.53;;;22.80;99.90;;;;;;5035888;28;20455;-77
2022/08/14 04:13:31;;;;;;;12.00;8.77;;;22.70;99.90;;;;;;5037040;28;20432;-79
2022/08/14 04:15:59;;;;;;;9.73;8.87;;;22.70;99.90;;;;;;5045060;28;20518;-78
2022/08/14 04:18:25;;;;;;;10.13;8.20;;;22.60;99.90;;;;;;5037775;28;20454;-79
2022/08/14 04:20:52;;;;;;;8.93;8.03;;;22.60;99.90;;;;;;5026318;28;20479;-80
2022/08/14 04:23:20;;;;;;;8.53;7.77;;;22.60;99.90;;;;;;5026493;28;20455;-81
2022/08/14 04:25:47;;;;;;;9.40;8.13;;;22.60;99.90;;;;;;5007397;28;20464;-81
2022/08/14 04:28:14;;;;;;;9.93;8.93;;;22.60;99.90;;;;;;5018126;28;20452;-81
2022/08/14 04:30:42;;;;;;;10.83;9.80;;;22.60;99.90;;;;;;5012099;28;20482;-80
2022/08/14 04:33:10;;;;;;;10.47;9.40;;;22.60;99.90;;;;;;5031487;28;20463;-79
2022/08/14 04:35:37;;;;;;;9.40;7.90;;;22.60;99.90;;;;;;5019206;28;20492;-79
2022/08/14 04:43:38;;;;;;;9.20;8.40;;;22.70;99.90;;;;;;5014647;28;20527;-79
2022/08/14 04:46:11;;;;;;;9.50;8.30;;;22.80;99.90;;;;;;5027691;28;20471;-78
2022/08/14 04:48:38;;;;;;;9.90;8.83;;;22.70;99.90;;;;;;5022883;28;20546;-79
2022/08/14 04:51:06;;;;;;;11.43;9.57;;;22.70;99.90;;;;;;5024298;28;20547;-79
2022/08/14 04:53:34;;;;;;;10.83;9.07;;;22.70;99.90;;;;;;5029452;28;20823;-79
2022/08/14 04:56:01;;;;;;;9.50;8.50;;;22.80;99.90;;;;;;5024051;28;20597;-80
2022/08/14 04:58:30;;;;;;;10.60;8.83;;;22.80;99.90;;;;;;5020003;28;20460;-78
2022/08/14 05:00:58;;;;;;;11.33;8.93;;;22.90;99.90;;;;;;5027602;28;20508;-79
2022/08/14 05:03:28;;;;;;;9.30;8.50;;;23.00;99.90;;;;;;5033591;28;20543;-80
2022/08/14 05:05:58;;;;;;;9.47;8.67;;;23.20;99.90;;;;;;5034669;28;20462;-79
2022/08/14 05:08:26;;;;;;;9.83;8.67;;;23.50;99.90;;;;;;5020343;28;20471;-79
2022/08/14 05:10:55;;;;;;;10.10;8.03;;;24.00;99.90;;;;;;5028013;28;20452;-80
2022/08/14 05:13:24;;;;;;;9.57;8.77;;;24.70;99.90;;;;;;5019977;28;20441;-80
2022/08/14 05:15:52;;;;;;;11.10;9.57;;;25.50;98.00;;;;;;5030258;28;20557;-80
2022/08/14 05:18:22;;;;;;;14.63;10.17;;;26.30;95.90;;;;;;5025220;28;20510;-79
2022/08/14 05:20:53;;;;;;;9.33;8.53;;;27.00;94.00;;;;;;5032139;28;20856;-80
2022/08/14 05:23:22;;;;;;;9.90;9.00;;;27.60;92.80;;;;;;5019932;28;20471;-79
2022/08/14 05:25:53;;;;;;;9.63;8.67;;;27.60;92.00;;;;;;5031650;28;20549;-80
2022/08/14 05:28:23;;;;;;;10.33;9.40;;;27.50;92.10;;;;;;5033022;28;20574;-79
2022/08/14 05:30:52;;;;;;;9.40;8.60;;;27.70;91.90;;;;;;5027157;28;20443;-80
2022/08/14 05:33:21;;;;;;;8.93;7.70;;;28.10;91.40;;;;;;5033587;28;20451;-79
2022/08/14 05:35:50;;;;;;;7.97;7.27;;;28.80;90.40;;;;;;5030388;28;20507;-80
2022/08/14 05:38:20;;;;;;;9.00;7.93;;;29.70;88.80;;;;;;5030836;28;20514;-78
2022/08/14 05:40:48;;;;;;;9.20;7.80;;;30.60;85.30;;;;;;5033650;28;20512;-79
2022/08/14 05:43:16;;;;;;;9.30;8.50;;;31.20;82.90;;;;;;5042214;28;20440;-78
2022/08/14 05:45:43;;;;;;;8.70;7.00;;;31.70;80.70;;;;;;5041895;28;20463;-79
2022/08/14 05:48:15;;;;;;;8.43;7.63;;;32.20;79.30;;;;;;5034922;28;20511;-77
2022/08/14 05:50:42;;;;;;;8.40;7.60;;;32.90;76.70;;;;;;5035467;28;20467;-79
2022/08/14 05:53:11;;;;;;;12.20;8.83;;;33.40;74.50;;;;;;5038968;28;20471;-81
2022/08/14 05:55:38;;;;;;;12.67;10.80;;;33.40;72.40;;;;;;5016398;28;20504;-81
2022/08/14 05:58:07;;;;;;;36.40;27.63;;;33.50;72.70;;;;;;5021978;28;20456;-79
2022/08/14 06:00:37;;;;;;;47.93;35.70;;;33.80;71.30;;;;;;5027725;28;20514;-79
2022/08/14 06:03:05;;;;;;;43.27;29.30;;;33.70;70.60;;;;;;5027416;28;20538;-81
2022/08/14 06:05:32;;;;;;;27.53;21.53;;;33.30;71.00;;;;;;5018031;28;20535;-81
2022/08/14 06:08:00;;;;;;;24.63;17.47;;;33.00;71.20;;;;;;5023942;28;20448;-78
2022/08/14 06:10:30;;;;;;;13.10;10.40;;;32.40;72.90;;;;;;5028559;28;20444;-79
2022/08/14 06:13:00;;;;;;;9.77;7.47;;;31.90;73.50;;;;;;5023047;28;20474;-79
2022/08/14 06:15:27;;;;;;;8.70;7.77;;;31.50;74.50;;;;;;5018588;28;20489;-79
2022/08/14 06:17:55;;;;;;;7.23;6.70;;;31.10;76.10;;;;;;5025267;28;20483;-80
2022/08/14 06:20:23;;;;;;;8.43;7.40;;;31.30;76.30;;;;;;5014196;28;20453;-80
2022/08/14 06:22:50;;;;;;;9.90;8.10;;;31.50;75.50;;;;;;5018354;28;20476;-80
2022/08/14 06:25:17;;;;;;;8.93;8.00;;;31.40;75.60;;;;;;5022715;28;20527;-80
2022/08/14 06:27:48;;;;;;;8.67;7.90;;;31.70;75.30;;;;;;5009917;28;20542;-79
2022/08/14 06:30:17;;;;;;;10.03;7.87;;;32.30;73.80;;;;;;5022245;28;20530;-80
2022/08/14 06:32:44;;;;;;;8.60;7.90;;;33.00;72.00;;;;;;5015738;28;20456;-76
2022/08/14 06:35:13;;;;;;;7.70;7.00;;;33.30;70.70;;;;;;5036402;28;20517;-77
2022/08/14 06:37:42;;;;;;;10.50;6.80;;;33.60;69.70;;;;;;5032716;28;20944;-78
2022/08/14 06:40:11;;;;;;;8.30;7.60;;;34.20;68.40;;;;;;5029730;28;20519;-78
2022/08/14 06:42:38;;;;;;;7.83;7.23;;;34.50;67.50;;;;;;5020917;28;20466;-78
2022/08/14 06:45:08;;;;;;;8.03;6.53;;;35.10;66.10;;;;;;5011507;28;20468;-79
2022/08/14 06:47:35;;;;;;;10.83;7.80;;;35.30;65.50;;;;;;5023927;28;20479;-80
2022/08/14 06:50:02;;;;;;;5.80;5.40;;;35.60;64.40;;;;;;5029442;28;20451;-80
2022/08/14 06:52:29;;;;;;;6.30;5.70;;;35.80;63.80;;;;;;5034398;28;20455;-79
2022/08/14 06:54:56;;;;;;;8.87;7.67;;;36.00;63.30;;;;;;5031137;28;20559;-81
2022/08/14 06:57:24;;;;;;;7.73;6.90;;;36.10;62.20;;;;;;5017338;28;20459;-80
2022/08/14 06:59:51;;;;;;;7.97;7.37;;;36.00;62.60;;;;;;5029130;28;20444;-80
2022/08/14 07:07:49;;;;;;;6.20;5.70;;;36.60;60.70;;;;;;5024659;28;20421;-80
2022/08/14 07:10:16;;;;;;;9.30;8.40;;;36.70;60.30;;;;;;5030277;28;20448;-77
2022/08/14 07:12:42;;;;;;;36.20;30.57;;;36.10;60.70;;;;;;5024594;28;20538;-80
2022/08/14 07:15:10;;;;;;;7.60;6.90;;;36.00;61.80;;;;;;5028819;28;20588;-81
2022/08/14 07:17:45;;;;;;;13.43;11.33;;;36.40;60.90;;;;;;5019785;28;20443;-80
2022/08/14 07:20:12;;;;;;;9.33;8.47;;;36.60;60.60;;;;;;5023960;28;20479;-80
2022/08/14 07:22:39;;;;;;;11.00;10.03;;;36.50;60.50;;;;;;5020552;28;20814;-78
2022/08/14 07:25:07;;;;;;;9.20;8.50;;;36.80;60.60;;;;;;5020255;28;20475;-81
2022/08/14 07:27:34;;;;;;;8.10;7.40;;;36.50;60.50;;;;;;5025912;28;20503;-81
2022/08/14 07:30:03;;;;;;;7.83;7.13;;;36.90;59.90;;;;;;5018869;28;20479;-80
2022/08/14 07:32:30;;;;;;;10.03;8.83;;;37.40;59.20;;;;;;5025120;28;20468;-80
2022/08/14 07:34:59;;;;;;;7.57;6.93;;;37.30;59.00;;;;;;5023404;28;20541;-80
2022/08/14 07:37:25;;;;;;;8.80;7.90;;;37.90;58.20;;;;;;5027440;28;20473;-79
2022/08/14 07:39:52;;;;;;;8.10;7.47;;;37.30;58.10;;;;;;5023470;28;20450;-80
2022/08/14 07:42:19;;;;;;;7.57;6.83;;;37.60;57.80;;;;;;5031490;28;20891;-80
2022/08/14 07:44:46;;;;;;;6.50;6.00;;;38.00;57.50;;;;;;5028316;28;20471;-80
2022/08/14 07:47:14;;;;;;;9.90;8.90;;;37.80;56.90;;;;;;5023789;28;20550;-80
2022/08/14 07:49:41;;;;;;;7.90;7.40;;;38.00;57.20;;;;;;5020040;28;20436;-79
2022/08/14 07:52:10;;;;;;;11.50;10.30;;;38.50;56.90;;;;;;5039724;28;20502;-79
2022/08/14 07:54:36;;;;;;;11.27;10.27;;;38.40;56.30;;;;;;5042550;28;20474;-79
2022/08/14 07:57:04;;;;;;;7.80;7.10;;;38.40;56.40;;;;;;5037686;28;20523;-79
2022/08/14 07:59:30;;;;;;;8.57;7.77;;;38.90;55.90;;;;;;5037035;28;20451;-80
2022/08/14 08:01:57;;;;;;;7.97;7.27;;;38.90;55.30;;;;;;5033353;28;20531;-80
2022/08/14 08:04:29;;;;;;;8.20;7.40;;;38.60;55.20;;;;;;5031350;28;20468;-81
2022/08/14 08:06:55;;;;;;;8.37;7.20;;;38.80;55.20;;;;;;5029985;28;20478;-82
2022/08/14 08:09:26;;;;;;;9.13;8.43;;;38.70;54.90;;;;;;5026689;28;20448;-81
2022/08/14 08:11:54;;;;;;;7.80;7.20;;;38.70;54.90;;;;;;5031335;28;20448;-81
2022/08/14 08:14:21;;;;;;;8.63;8.03;;;39.00;54.80;;;;;;5029762;28;20440;-80
2022/08/14 08:16:49;;;;;;;8.50;7.70;;;39.20;54.30;;;;;;5030428;28;20475;-81
2022/08/14 08:19:17;;;;;;;8.97;7.97;;;39.10;54.30;;;;;;5027496;28;20487;-81
2022/08/14 08:21:45;;;;;;;8.60;7.80;;;38.80;54.60;;;;;;5018030;28;20463;-81
2022/08/14 08:24:12;;;;;;;7.73;7.13;;;38.70;55.00;;;;;;5025199;28;20456;-82
2022/08/14 08:26:40;;;;;;;8.00;7.40;;;39.30;54.40;;;;;;5033072;28;20549;-80
2022/08/14 08:29:08;;;;;;;8.50;6.87;;;39.30;54.00;;;;;;5036358;28;20468;-79
2022/08/14 08:31:48;;;;;;;8.30;7.60;;;39.50;53.20;;;;;;5037797;28;20447;-78
2022/08/14 08:34:15;;;;;;;8.37;7.67;;;39.60;52.90;;;;;;5030541;28;20455;-83
2022/08/14 08:36:42;;;;;;;7.80;7.20;;;39.70;52.30;;;;;;5026383;28;20487;-81
2022/08/14 08:39:09;;;;;;;8.23;7.43;;;40.10;52.30;;;;;;5025582;28;20525;-82
2022/08/14 08:41:42;;;;;;;8.20;7.50;;;39.70;51.80;;;;;;5032706;28;20534;-81
2022/08/14 08:44:09;;;;;;;9.03;8.13;;;39.60;52.50;;;;;;5030761;28;20498;-80
2022/08/14 08:46:36;;;;;;;7.43;6.83;;;39.50;52.20;;;;;;5037115;28;21003;-81
2022/08/14 08:49:04;;;;;;;9.30;8.60;;;39.70;52.10;;;;;;5032810;28;20455;-80
2022/08/14 08:51:33;;;;;;;8.87;8.07;;;39.90;51.40;;;;;;5036973;28;20464;-81
2022/08/14 08:54:02;;;;;;;7.70;7.10;;;40.10;51.20;;;;;;5039859;28;20447;-79
2022/08/14 08:56:36;;;;;;;14.83;13.13;;;40.20;50.70;;;;;;5029011;28;20483;-82
2022/08/14 08:59:17;;;;;;;15.33;7.77;;;39.70;51.00;;;;;;5016260;28;20452;-83
2022/08/14 09:01:50;;;;;;;8.30;7.70;;;40.20;51.00;;;;;;5021485;28;20440;-81
2022/08/14 09:04:17;;;;;;;7.50;6.90;;;40.20;50.40;;;;;;5011251;28;20480;-81
2022/08/14 09:06:45;;;;;;;10.93;9.97;;;39.90;50.50;;;;;;5024409;28;20547;-81
2022/08/14 09:09:19;;;;;;;11.90;10.80;;;39.80;51.10;;;;;;5017002;28;20455;-81
2022/08/14 09:11:46;;;;;;;8.80;8.10;;;39.60;50.90;;;;;;5022433;28;20446;-82
2022/08/14 09:14:14;;;;;;;7.53;6.93;;;39.80;51.20;;;;;;5030537;28;20485;-83
2022/08/14 09:16:41;;;;;;;8.67;7.93;;;39.90;51.10;;;;;;5023543;28;20476;-81
2022/08/14 09:19:09;;;;;;;9.73;8.83;;;40.70;50.00;;;;;;5015787;28;20484;-81
2022/08/14 09:21:38;;;;;;;10.50;8.80;;;40.30;49.60;;;;;;5019409;28;20456;-82
2022/08/14 09:24:06;;;;;;;8.90;8.10;;;39.50;50.60;;;;;;5015337;28;20455;-81
2022/08/14 09:26:33;;;;;;;9.50;8.70;;;38.80;51.50;;;;;;5016588;28;20479;-79
2022/08/14 09:29:00;;;;;;;9.63;8.83;;;38.70;51.80;;;;;;5017136;28;20466;-82
2022/08/14 09:31:30;;;;;;;9.47;8.77;;;38.80;51.90;;;;;;5019696;28;20447;-81
2022/08/14 09:34:03;;;;;;;8.03;7.23;;;38.80;52.10;;;;;;5028523;28;20813;-81
2022/08/14 09:36:55;;;;;;;9.90;9.03;;;39.40;51.30;;;;;;5016759;28;20836;-82
2022/08/14 09:39:37;;;;;;;9.13;8.33;;;39.40;50.70;;;;;;5026252;28;20484;-82
2022/08/14 09:42:31;;;;;;;12.90;8.17;;;39.30;50.40;;;;;;5023786;28;20448;-81
2022/08/14 09:45:10;;;;;;;8.50;7.80;;;39.00;51.20;;;;;;5010345;28;20554;-82
2022/08/14 09:47:50;;;;;;;8.17;7.57;;;38.40;51.80;;;;;;5026781;28;20777;-83
2022/08/14 09:50:23;;;;;;;9.33;8.53;;;37.80;53.10;;;;;;5023480;28;20492;-82
2022/08/14 09:52:54;;;;;;;9.43;8.53;;;37.90;53.30;;;;;;5021122;28;20444;-82
2022/08/14 09:55:23;;;;;;;8.90;8.10;;;38.00;52.90;;;;;;5014072;28;20555;-82
2022/08/14 09:57:51;;;;;;;10.70;8.77;;;37.60;53.20;;;;;;5030688;28;20498;-81
2022/08/14 10:00:22;;;;;;;8.63;7.83;;;37.10;53.80;;;;;;5018500;28;20452;-81
2022/08/14 10:02:56;;;;;;;9.17;8.17;;;36.60;54.50;;;;;;5024186;28;20437;-81
2022/08/14 10:05:33;;;;;;;8.83;7.93;;;36.70;54.30;;;;;;5017047;28;20479;-80
2022/08/14 10:08:01;;;;;;;8.70;7.80;;;36.50;54.50;;;;;;5025150;28;20449;-82
2022/08/14 10:10:32;;;;;;;9.77;8.90;;;36.50;54.50;;;;;;5028195;28;20450;-81
2022/08/14 10:13:00;;;;;;;9.03;8.07;;;36.20;54.70;;;;;;5023784;28;20433;-81
2022/08/14 10:15:28;;;;;;;9.03;8.13;;;35.70;55.30;;;;;;5010688;28;20471;-82
2022/08/14 10:18:09;;;;;;;8.77;7.87;;;35.80;55.60;;;;;;5022276;28;20562;-82
2022/08/14 10:20:40;;;;;;;12.40;9.00;;;35.60;56.40;;;;;;5029164;28;20443;-80
2022/08/14 10:23:15;;;;;;;8.57;7.70;;;35.80;56.00;;;;;;5013445;28;21087;-81
2022/08/14 10:25:44;;;;;;;13.53;7.90;;;36.00;55.10;;;;;;5030042;28;20915;-81
2022/08/14 10:28:14;;;;;;;9.40;7.60;;;36.00;55.70;;;;;;5025938;28;20456;-81
2022/08/14 10:30:42;;;;;;;7.57;6.80;;;35.70;56.10;;;;;;5022392;28;20498;-82
2022/08/14 10:33:10;;;;;;;8.53;7.83;;;35.50;56.70;;;;;;5024805;28;20936;-83
2022/08/14 10:35:42;;;;;;;8.27;7.50;;;35.30;56.70;;;;;;5030196;28;20543;-81
2022/08/14 10:38:09;;;;;;;9.00;8.30;;;35.10;57.30;;;;;;5031052;28;20489;-82
2022/08/14 10:40:36;;;;;;;9.90;8.90;;;35.40;56.90;;;;;;5034444;28;20447;-81
2022/08/14 10:43:04;;;;;;;9.53;8.63;;;34.90;57.90;;;;;;5033739;28;20466;-81
2022/08/14 10:45:33;;;;;;;9.37;8.27;;;34.50;58.10;;;;;;5026202;28;20547;-81
2022/08/14 10:48:01;;;;;;;8.47;7.20;;;34.00;58.80;;;;;;5021117;28;21131;-81
2022/08/14 10:50:34;;;;;;;8.50;7.80;;;33.70;59.10;;;;;;5010567;28;20464;-81
2022/08/14 10:53:04;;;;;;;10.10;9.10;;;33.50;59.70;;;;;;5025544;28;20467;-79
2022/08/14 10:55:38;;;;;;;10.07;7.90;;;33.50;60.30;;;;;;5031349;28;20821;-81
2022/08/14 10:58:09;;;;;;;7.80;7.07;;;33.40;59.20;;;;;;5020139;28;20922;-80
2022/08/14 11:00:37;;;;;;;8.77;8.07;;;33.40;59.70;;;;;;5041659;28;20980;-79
2022/08/14 11:03:08;;;;;;;9.00;8.30;;;33.50;59.70;;;;;;5043412;28;20436;-80
2022/08/14 11:05:42;;;;;;;8.40;7.70;;;33.20;60.30;;;;;;5045585;28;20472;-80
2022/08/14 11:08:10;;;;;;;9.33;8.53;;;33.00;60.00;;;;;;5034288;28;20451;-79
2022/08/14 11:10:44;;;;;;;8.20;7.50;;;32.70;60.10;;;;;;5022461;28;20435;-81
2022/08/14 11:13:17;;;;;;;9.00;7.70;;;32.50;60.00;;;;;;5024697;28;20459;-83
2022/08/14 11:15:47;;;;;;;9.30;8.20;;;32.50;60.60;;;;;;5022884;28;20534;-81
2022/08/14 11:18:15;;;;;;;8.80;8.00;;;32.40;60.90;;;;;;5022833;28;20487;-81
2022/08/14 11:20:49;;;;;;;9.07;8.30;;;32.20;61.30;;;;;;5026378;28;20444;-80
2022/08/14 11:23:17;;;;;;;9.67;7.87;;;32.20;60.50;;;;;;5027104;28;20425;-80
2022/08/14 11:25:45;;;;;;;8.03;7.30;;;32.10;61.00;;;;;;5036079;28;20460;-80
2022/08/14 11:28:14;;;;;;;8.77;7.87;;;32.00;61.40;;;;;;5033214;28;20460;-80
2022/08/14 11:30:43;;;;;;;13.13;7.07;;;32.00;62.20;;;;;;5035417;28;20435;-79
2022/08/14 11:33:10;;;;;;;10.07;7.83;;;32.10;61.90;;;;;;5033242;28;20444;-80
2022/08/14 11:35:38;;;;;;;8.03;7.33;;;32.30;61.90;;;;;;5054835;22;20484;-74
2022/08/14 11:38:09;;;;;;;8.43;7.63;;;32.30;62.10;;;;;;5055359;28;21040;-74
2022/08/14 11:40:38;;;;;;;7.77;7.07;;;32.60;62.30;;;;;;5057214;28;20441;-74
2022/08/14 11:43:08;;;;;;;8.77;8.07;;;32.60;61.50;;;;;;5057518;28;20508;-74
2022/08/14 11:45:37;;;;;;;9.27;8.47;;;32.80;61.60;;;;;;5057490;28;20500;-74
2022/08/14 11:48:16;;;;;;;9.40;8.40;;;32.60;61.50;;;;;;5050290;28;20476;-74
2022/08/14 11:50:44;;;;;;;8.40;7.70;;;32.40;62.50;;;;;;5048706;28;20449;-72
2022/08/14 11:53:29;;;;;;;8.90;8.00;;;32.60;62.90;;;;;;5050120;28;21036;-72
2022/08/14 11:55:57;;;;;;;9.13;8.00;;;32.60;62.40;;;;;;5053310;28;20482;-73
2022/08/14 11:58:30;;;;;;;7.90;7.20;;;32.20;63.20;;;;;;5048817;28;20486;-74
2022/08/14 12:01:01;;;;;;;7.77;7.07;;;32.30;62.90;;;;;;5047728;28;21157;-72
2022/08/14 12:03:42;;;;;;;9.00;8.10;;;32.40;61.50;;;;;;5061247;28;20557;-74
2022/08/14 12:06:11;;;;;;;8.70;7.87;;;32.40;61.50;;;;;;5047586;28;20823;-73
2022/08/14 12:08:52;;;;;;;9.20;8.20;;;32.60;61.70;;;;;;5044162;28;20485;-73
2022/08/14 12:11:21;;;;;;;9.57;8.67;;;32.60;62.00;;;;;;5057459;28;20460;-75
2022/08/14 12:13:49;;;;;;;13.50;7.47;;;32.70;61.90;;;;;;5044793;28;20462;-72
2022/08/14 12:16:16;;;;;;;8.67;6.87;;;32.80;61.00;;;;;;5051000;28;20446;-75
2022/08/14 12:18:47;;;;;;;9.90;6.83;;;32.90;61.10;;;;;;5045084;28;20496;-72
2022/08/14 12:21:16;;;;;;;8.10;7.40;;;32.80;60.80;;;;;;5046656;28;20469;-73
2022/08/14 12:23:46;;;;;;;10.20;8.07;;;32.50;62.10;;;;;;5045055;28;20560;-73
2022/08/14 12:26:19;;;;;;;8.43;7.73;;;32.20;61.70;;;;;;5043759;28;20477;-73
2022/08/14 12:28:50;;;;;;;9.60;7.20;;;32.20;61.70;;;;;;5049770;28;20442;-74
2022/08/14 12:31:20;;;;;;;8.13;7.33;;;32.20;62.20;;;;;;5042954;28;20441;-72
2022/08/14 12:33:58;;;;;;;8.43;7.73;;;32.40;62.00;;;;;;5053506;28;20532;-74
2022/08/14 12:36:29;;;;;;;7.80;6.57;;;32.40;60.40;;;;;;5047839;28;20451;-74
2022/08/14 12:39:00;;;;;;;9.43;8.53;;;32.40;60.00;;;;;;5048803;28;20447;-75
2022/08/14 12:41:34;;;;;;;7.77;7.07;;;32.40;60.00;;;;;;5053604;28;20448;-74
2022/08/14 12:44:06;;;;;;;11.23;7.20;;;32.50;59.60;;;;;;5054194;28;20466;-74
2022/08/14 12:46:36;;;;;;;8.10;7.30;;;32.70;59.20;;;;;;5055388;28;20533;-74
2022/08/14 12:49:12;;;;;;;7.67;6.83;;;32.60;58.90;;;;;;5048972;28;20446;-74
2022/08/14 12:51:42;;;;;;;7.83;6.87;;;32.80;58.40;;;;;;5053413;28;20458;-73
2022/08/14 12:54:18;;;;;;;8.90;8.00;;;32.60;58.30;;;;;;5050541;28;20478;-75
2022/08/14 12:56:46;;;;;;;8.57;7.87;;;32.60;58.60;;;;;;5051215;28;20448;-75
2022/08/14 12:59:15;;;;;;;12.13;8.73;;;32.70;58.20;;;;;;5054541;28;20494;-76
2022/08/14 13:01:45;;;;;;;8.37;7.50;;;32.60;58.40;;;;;;5050177;28;20461;-75
2022/08/14 13:04:14;;;;;;;9.87;8.03;;;32.50;58.20;;;;;;5051807;28;20903;-73
2022/08/14 13:06:44;;;;;;;9.67;7.80;;;32.50;58.40;;;;;;5047593;28;20466;-74